sensor_id;sensor_type;location;lat;lon;timestamp;pressure;altitude;pressure_sealevel;temperature;humidity
3590;BME280;1809;48.470;9.226;2023-02-02T00:01:16;121271.19;;;4.94;100.00
3590;BME280;1809;48.470;9.226;2023-02-02T00:03:41;121599.66;;;4.87;100.00
3590;BME280;1809;48.470;9.226;2023-02-02T00:06:07;120592.13;;;4.96;100.00
3590;BME280;1809;48.470;9.226;2023-02-02T00:08:33;120248.69;;;4.95;100.00
3590;BME280;1809;48.470;9.226;2023-02-02T00:11:00;120928.66;;;4.93;100.00
3590;BME280;1809;48.470;9.226;2023-02-02T00:13:25;121620.84;;;4.98;100.00
3590;BME280;1809;48.470;9.226;2023-02-02T00:15:52;122640.72;;;4.95;100.00
3590;BME280;1809;48.470;9.226;2023-02-02T00:18:17;121614.78;;;4.95;100.00
3590;BME280;1809;48.470;9.226;2023-02-02T00:20:43;121627.91;;;5.01;100.00
3590;BME280;1809;48.470;9.226;2023-02-02T00:23:09;121284.25;;;5.00;100.00
3590;BME280;1809;48.470;9.226;2023-02-02T00:25:34;121274.19;;;4.95;100.00
3590;BME280;1809;48.470;9.226;2023-02-02T00:28:00;121287.25;;;5.02;100.00
3590;BME280;1809;48.470;9.226;2023-02-02T00:30:25;121964.47;;;4.99;100.00
3590;BME280;1809;48.470;9.226;2023-02-02T00:32:51;122305.13;;;4.98;100.00
3590;BME280;1809;48.470;9.226;2023-02-02T00:35:18;122987.56;;;4.98;100.00
3590;BME280;1809;48.470;9.226;2023-02-02T00:37:43;124694.59;;;4.97;100.00
3590;BME280;1809;48.470;9.226;2023-02-02T00:40:09;126391.94;;;4.91;100.00
3590;BME280;1809;48.470;9.226;2023-02-02T00:42:35;127769.88;;;4.95;100.00
3590;BME280;1809;48.470;9.226;2023-02-02T00:45:01;128101.47;;;4.90;100.00
3590;BME280;1809;48.470;9.226;2023-02-02T00:47:47;127772.00;;;4.96;100.00
3590;BME280;1809;48.470;9.226;2023-02-02T00:50:16;127421.34;;;4.92;100.00
3590;BME280;1809;48.470;9.226;2023-02-02T00:52:42;126747.69;;;4.97;100.00
3590;BME280;1809;48.470;9.226;2023-02-02T00:55:08;126399.28;;;4.94;100.00
3590;BME280;1809;48.470;9.226;2023-02-02T00:57:34;126058.31;;;4.95;100.00
3590;BME280;1809;48.470;9.226;2023-02-02T00:59:59;126401.38;;;4.95;100.00
3590;BME280;1809;48.470;9.226;2023-02-02T01:02:24;126397.19;;;4.93;100.00
3590;BME280;1809;48.470;9.226;2023-02-02T01:04:50;126063.53;;;4.97;100.00
3590;BME280;1809;48.470;9.226;2023-02-02T01:07:16;126416.06;;;5.02;100.00
3590;BME280;1809;48.470;9.226;2023-02-02T01:09:41;124703.94;;;5.01;100.00
3590;BME280;1809;48.470;9.226;2023-02-02T01:12:06;123682.38;;;5.03;100.00
3590;BME280;1809;48.470;9.226;2023-02-02T01:14:32;122643.78;;;4.97;100.00
3590;BME280;1809;48.470;9.226;2023-02-02T01:16:57;122660.03;;;5.05;100.00
3590;BME280;1809;48.470;9.226;2023-02-02T01:19:22;121975.63;;;5.04;100.00
3590;BME280;1809;48.470;9.226;2023-02-02T01:21:48;122330.47;;;5.11;100.00
3590;BME280;1809;48.470;9.226;2023-02-02T01:24:13;122324.38;;;5.08;100.00
3590;BME280;1809;48.470;9.226;2023-02-02T01:26:38;123346.69;;;5.06;100.00
3590;BME280;1809;48.470;9.226;2023-02-02T01:29:04;123348.75;;;5.07;100.00
3590;BME280;1809;48.470;9.226;2023-02-02T01:31:29;123690.59;;;5.07;100.00
3590;BME280;1809;48.470;9.226;2023-02-02T01:33:54;124357.88;;;4.99;100.00
3590;BME280;1809;48.470;9.226;2023-02-02T01:36:21;125736.13;;;5.04;100.00
3590;BME280;1809;48.470;9.226;2023-02-02T01:38:48;125740.28;;;5.06;100.00
3590;BME280;1809;48.470;9.226;2023-02-02T01:41:17;125735.06;;;5.04;100.00
3590;BME280;1809;48.470;9.226;2023-02-02T01:46:15;129825.81;;;4.96;100.00
3590;BME280;1809;48.470;9.226;2023-02-02T01:49:06;133586.41;;;4.93;100.00
3590;BME280;1809;48.470;9.226;2023-02-02T01:51:54;136303.34;;;4.81;100.00
3590;BME280;1809;48.470;9.226;2023-02-02T01:54:48;138018.44;;;4.81;100.00
3590;BME280;1809;48.470;9.226;2023-02-02T01:57:38;138361.56;;;4.81;100.00
3590;BME280;1809;48.470;9.226;2023-02-02T02:00:09;140068.34;;;4.77;100.00
3590;BME280;1809;48.470;9.226;2023-02-02T02:02:37;141778.06;;;4.74;100.00
3590;BME280;1809;48.470;9.226;2023-02-02T02:05:04;142794.25;;;4.68;100.00
3590;BME280;1809;48.470;9.226;2023-02-02T02:07:30;142791.91;;;4.67;100.00
3590;BME280;1809;48.470;9.226;2023-02-02T02:09:56;142789.50;;;4.66;100.00
3590;BME280;1809;48.470;9.226;2023-02-02T02:12:21;142450.75;;;4.68;100.00
3590;BME280;1809;48.470;9.226;2023-02-02T02:14:49;142113.22;;;4.70;100.00
3590;BME280;1809;48.470;9.226;2023-02-02T02:17:59;140751.47;;;4.75;100.00
3590;BME280;1809;48.470;9.226;2023-02-02T02:35:35;136328.25;;;4.92;100.00
3590;BME280;1809;48.470;9.226;2023-02-02T02:38:12;135976.25;;;4.88;100.00
3590;BME280;1809;48.470;9.226;2023-02-02T02:40:59;135977.38;;;4.88;100.00
3590;BME280;1809;48.470;9.226;2023-02-02T02:43:33;135980.75;;;4.90;100.00
3590;BME280;1809;48.470;9.226;2023-02-02T02:46:01;136335.06;;;4.95;100.00
3590;BME280;1809;48.470;9.226;2023-02-02T02:48:28;135992.03;;;4.95;100.00
3590;BME280;1809;48.470;9.226;2023-02-02T02:50:53;135988.69;;;4.94;100.00
3590;BME280;1809;48.470;9.226;2023-02-02T02:53:22;135977.38;;;4.88;100.00
3590;BME280;1809;48.470;9.226;2023-02-02T02:56:11;136659.94;;;4.87;100.00
3590;BME280;1809;48.470;9.226;2023-02-02T02:58:53;137343.72;;;4.86;100.00
3590;BME280;1809;48.470;9.226;2023-02-02T03:01:35;136662.22;;;4.88;100.00
3590;BME280;1809;48.470;9.226;2023-02-02T03:06:41;135989.81;;;4.94;100.00
3590;BME280;1809;48.470;9.226;2023-02-02T03:09:17;135317.41;;;5.00;100.00
3590;BME280;1809;48.470;9.226;2023-02-02T03:11:45;134274.19;;;4.94;100.00
3590;BME280;1809;48.470;9.226;2023-02-02T03:14:13;133938.06;;;4.97;100.00
3590;BME280;1809;48.470;9.226;2023-02-02T03:16:38;134275.31;;;4.94;100.00
3590;BME280;1809;48.470;9.226;2023-02-02T03:19:05;134278.63;;;4.96;100.00
3590;BME280;1809;48.470;9.226;2023-02-02T03:21:32;134275.31;;;4.94;100.00
3590;BME280;1809;48.470;9.226;2023-02-02T03:23:58;134629.31;;;4.99;100.00
3590;BME280;1809;48.470;9.226;2023-02-02T03:26:24;133596.41;;;4.97;100.00
3590;BME280;1809;48.470;9.226;2023-02-02T03:28:50;133943.63;;;4.99;100.00
3590;BME280;1809;48.470;9.226;2023-02-02T03:31:15;133950.31;;;5.02;100.00
3590;BME280;1809;48.470;9.226;2023-02-02T03:33:41;133600.84;;;4.99;100.00
3590;BME280;1809;48.470;9.226;2023-02-02T03:36:07;133269.16;;;5.04;100.00
3590;BME280;1809;48.470;9.226;2023-02-02T03:38:32;133265.81;;;5.03;100.00
3590;BME280;1809;48.470;9.226;2023-02-02T03:40:57;133609.72;;;5.03;100.00
3590;BME280;1809;48.470;9.226;2023-02-02T03:43:23;132931.91;;;5.07;100.00
3590;BME280;1809;48.470;9.226;2023-02-02T03:46:00;133266.94;;;5.03;100.00
3590;BME280;1809;48.470;9.226;2023-02-02T03:48:26;133607.50;;;5.02;100.00
3590;BME280;1809;48.470;9.226;2023-02-02T03:50:52;133939.19;;;4.97;100.00
3590;BME280;1809;48.470;9.226;2023-02-02T03:53:17;134283.13;;;4.98;100.00
3590;BME280;1809;48.470;9.226;2023-02-02T03:55:43;134628.19;;;4.99;100.00
3590;BME280;1809;48.470;9.226;2023-02-02T03:58:08;134984.53;;;5.05;100.00
3590;BME280;1809;48.470;9.226;2023-02-02T04:00:33;134633.81;;;5.01;100.00
3590;BME280;1809;48.470;9.226;2023-02-02T04:02:59;134985.69;;;5.05;100.00
3590;BME280;1809;48.470;9.226;2023-02-02T04:05:24;134295.41;;;5.03;100.00
3590;BME280;1809;48.470;9.226;2023-02-02T04:07:50;134647.25;;;5.07;100.00
3590;BME280;1809;48.470;9.226;2023-02-02T04:10:16;134647.25;;;5.07;100.00
3590;BME280;1809;48.470;9.226;2023-02-02T04:12:42;134311.03;;;5.10;100.00
3590;BME280;1809;48.470;9.226;2023-02-02T04:15:07;133620.81;;;5.08;100.00
3590;BME280;1809;48.470;9.226;2023-02-02T04:17:33;133286.88;;;5.12;100.00
3590;BME280;1809;48.470;9.226;2023-02-02T04:19:59;133279.09;;;5.09;100.00
3590;BME280;1809;48.470;9.226;2023-02-02T04:22:25;133285.75;;;5.12;100.00
3590;BME280;1809;48.470;9.226;2023-02-02T04:24:50;133290.16;;;5.14;100.00
3590;BME280;1809;48.470;9.226;2023-02-02T04:27:16;132957.31;;;5.18;100.00
3590;BME280;1809;48.470;9.226;2023-02-02T04:29:41;132610.13;;;5.16;100.00
3590;BME280;1809;48.470;9.226;2023-02-02T04:32:07;132618.91;;;5.20;100.00
3590;BME280;1809;48.470;9.226;2023-02-02T04:34:32;131937.75;;;5.22;100.00
3590;BME280;1809;48.470;9.226;2023-02-02T04:36:58;131935.56;;;5.21;100.00
3590;BME280;1809;48.470;9.226;2023-02-02T04:39:23;132279.41;;;5.22;100.00
3590;BME280;1809;48.470;9.226;2023-02-02T04:41:48;132624.44;;;5.23;100.00
3590;BME280;1809;48.470;9.226;2023-02-02T04:44:14;132627.72;;;5.24;100.00
3590;BME280;1809;48.470;9.226;2023-02-02T04:46:43;132968.34;;;5.23;100.00
3590;BME280;1809;48.470;9.226;2023-02-02T04:49:10;132972.78;;;5.25;100.00
3590;BME280;1809;48.470;9.226;2023-02-02T04:51:36;132968.34;;;5.23;100.00
3590;BME280;1809;48.470;9.226;2023-02-02T04:54:02;133309.03;;;5.22;100.00
3590;BME280;1809;48.470;9.226;2023-02-02T04:56:27;133641.91;;;5.18;100.00
3590;BME280;1809;48.470;9.226;2023-02-02T04:58:53;133636.38;;;5.15;100.00
3590;BME280;1809;48.470;9.226;2023-02-02T05:01:20;133988.16;;;5.19;100.00
3590;BME280;1809;48.470;9.226;2023-02-02T05:03:46;134671.84;;;5.18;100.00
3590;BME280;1809;48.470;9.226;2023-02-02T05:06:12;135345.53;;;5.13;100.00
3590;BME280;1809;48.470;9.226;2023-02-02T05:08:37;135013.72;;;5.18;100.00
3590;BME280;1809;48.470;9.226;2023-02-02T05:11:11;135357.91;;;5.18;100.00
3590;BME280;1809;48.470;9.226;2023-02-02T05:13:36;135372.53;;;5.25;100.00
3590;BME280;1809;48.470;9.226;2023-02-02T05:16:02;134668.50;;;5.17;100.00
3590;BME280;1809;48.470;9.226;2023-02-02T05:18:28;134331.13;;;5.19;100.00
3590;BME280;1809;48.470;9.226;2023-02-02T05:20:58;133980.38;;;5.16;100.00
3590;BME280;1809;48.470;9.226;2023-02-02T05:23:23;133994.84;;;5.22;100.00
3590;BME280;1809;48.470;9.226;2023-02-02T05:25:52;133635.25;;;5.15;100.00
3590;BME280;1809;48.470;9.226;2023-02-02T05:28:19;133636.38;;;5.15;100.00
3590;BME280;1809;48.470;9.226;2023-02-02T05:30:45;133643.03;;;5.18;100.00
3590;BME280;1809;48.470;9.226;2023-02-02T05:33:10;133640.78;;;5.17;100.00
3590;BME280;1809;48.470;9.226;2023-02-02T05:35:36;133646.38;;;5.20;100.00
3590;BME280;1809;48.470;9.226;2023-02-02T05:38:01;133649.69;;;5.21;100.00
3590;BME280;1809;48.470;9.226;2023-02-02T05:40:27;133657.47;;;5.25;100.00
3590;BME280;1809;48.470;9.226;2023-02-02T05:42:52;133314.56;;;5.25;100.00
3590;BME280;1809;48.470;9.226;2023-02-02T05:45:17;133660.78;;;5.26;100.00
3590;BME280;1809;48.470;9.226;2023-02-02T05:47:42;132967.28;;;5.23;100.00
3590;BME280;1809;48.470;9.226;2023-02-02T05:50:08;133656.34;;;5.24;100.00
3590;BME280;1809;48.470;9.226;2023-02-02T05:52:34;133671.91;;;5.31;100.00
3590;BME280;1809;48.470;9.226;2023-02-02T05:55:00;132972.78;;;5.25;100.00
3590;BME280;1809;48.470;9.226;2023-02-02T05:57:26;132977.19;;;5.27;100.00
3590;BME280;1809;48.470;9.226;2023-02-02T05:59:52;132971.66;;;5.25;100.00
3590;BME280;1809;48.470;9.226;2023-02-02T06:02:18;133676.31;;;5.33;100.00
3590;BME280;1809;48.470;9.226;2023-02-02T06:04:43;133331.13;;;5.32;100.00
3590;BME280;1809;48.470;9.226;2023-02-02T06:07:08;134017.09;;;5.32;100.00
3590;BME280;1809;48.470;9.226;2023-02-02T06:09:34;135041.78;;;5.30;100.00
3590;BME280;1809;48.470;9.226;2023-02-02T06:11:59;136398.53;;;5.23;100.00
3590;BME280;1809;48.470;9.226;2023-02-02T06:14:24;137080.41;;;5.21;100.00
3590;BME280;1809;48.470;9.226;2023-02-02T06:16:50;138461.72;;;5.25;100.00
3590;BME280;1809;48.470;9.226;2023-02-02T06:19:15;138112.59;;;5.22;100.00
3590;BME280;1809;48.470;9.226;2023-02-02T06:21:40;139147.41;;;5.24;100.00
3590;BME280;1809;48.470;9.226;2023-02-02T06:24:06;138807.44;;;5.26;100.00
3590;BME280;1809;48.470;9.226;2023-02-02T06:26:31;139500.16;;;5.28;100.00
3590;BME280;1809;48.470;9.226;2023-02-02T06:28:56;140526.16;;;5.26;100.00
3590;BME280;1809;48.470;9.226;2023-02-02T06:31:22;141187.59;;;5.15;100.00
3590;BME280;1809;48.470;9.226;2023-02-02T06:33:56;143249.81;;;5.15;100.00
3590;BME280;1809;48.470;9.226;2023-02-02T06:36:23;144270.53;;;5.11;100.00
3590;BME280;1809;48.470;9.226;2023-02-02T06:38:50;145643.88;;;5.10;100.00
3590;BME280;1809;48.470;9.226;2023-02-02T06:41:17;146651.59;;;5.00;100.00
3590;BME280;1809;48.470;9.226;2023-02-02T06:43:42;147687.59;;;5.01;100.00
3590;BME280;1809;48.470;9.226;2023-02-02T06:46:08;148031.75;;;5.01;100.00
3590;BME280;1809;48.470;9.226;2023-02-02T06:48:33;148712.72;;;4.98;100.00
3590;BME280;1809;48.470;9.226;2023-02-02T06:50:59;148370.97;;;4.99;100.00
3590;BME280;1809;48.470;9.226;2023-02-02T06:53:25;148035.44;;;5.03;100.00
3590;BME280;1809;48.470;9.226;2023-02-02T06:55:55;148368.50;;;4.98;100.00
3590;BME280;1809;48.470;9.226;2023-02-02T06:58:21;148383.38;;;5.04;100.00
3590;BME280;1809;48.470;9.226;2023-02-02T07:00:47;148031.75;;;5.01;100.00
3590;BME280;1809;48.470;9.226;2023-02-02T07:03:16;148716.44;;;5.00;100.00
3590;BME280;1809;48.470;9.226;2023-02-02T07:05:41;148712.72;;;4.98;100.00
3590;BME280;1809;48.470;9.226;2023-02-02T07:08:07;148717.69;;;5.00;100.00
3590;BME280;1809;48.470;9.226;2023-02-02T07:10:32;149058.22;;;4.99;100.00
3590;BME280;1809;48.470;9.226;2023-02-02T07:12:58;149417.44;;;5.05;100.00
3590;BME280;1809;48.470;9.226;2023-02-02T07:15:23;148728.81;;;5.05;100.00
3590;BME280;1809;48.470;9.226;2023-02-02T07:17:48;148388.31;;;5.06;100.00
3590;BME280;1809;48.470;9.226;2023-02-02T07:20:14;147694.97;;;5.04;100.00
3590;BME280;1809;48.470;9.226;2023-02-02T07:22:40;147712.16;;;5.11;100.00
3590;BME280;1809;48.470;9.226;2023-02-02T07:25:07;147372.91;;;5.13;100.00
3590;BME280;1809;48.470;9.226;2023-02-02T07:27:32;146685.78;;;5.14;100.00
3590;BME280;1809;48.470;9.226;2023-02-02T07:29:58;146690.69;;;5.16;100.00
3590;BME280;1809;48.470;9.226;2023-02-02T07:32:23;146699.25;;;5.19;100.00
3590;BME280;1809;48.470;9.226;2023-02-02T07:34:49;146018.31;;;5.22;100.00
3590;BME280;1809;48.470;9.226;2023-02-02T07:37:14;145337.41;;;5.25;100.00
3590;BME280;1809;48.470;9.226;2023-02-02T07:39:39;144978.88;;;5.19;100.00
3590;BME280;1809;48.470;9.226;2023-02-02T07:42:09;144654.16;;;5.27;100.00
3590;BME280;1809;48.470;9.226;2023-02-02T07:44:35;144329.41;;;5.35;100.00
3590;BME280;1809;48.470;9.226;2023-02-02T07:47:00;143295.13;;;5.34;100.00
3590;BME280;1809;48.470;9.226;2023-02-02T07:49:25;143296.31;;;5.35;100.00
3590;BME280;1809;48.470;9.226;2023-02-02T07:51:51;143641.44;;;5.35;100.00
3590;BME280;1809;48.470;9.226;2023-02-02T07:54:16;143978.19;;;5.32;100.00
3590;BME280;1809;48.470;9.226;2023-02-02T07:56:41;144668.59;;;5.33;100.00
3590;BME280;1809;48.470;9.226;2023-02-02T07:59:09;145005.41;;;5.30;100.00
3590;BME280;1809;48.470;9.226;2023-02-02T08:01:35;145005.41;;;5.30;100.00
3590;BME280;1809;48.470;9.226;2023-02-02T08:04:00;145705.75;;;5.35;100.00
3590;BME280;1809;48.470;9.226;2023-02-02T08:06:38;145711.81;;;5.38;100.00
3590;BME280;1809;48.470;9.226;2023-02-02T08:09:06;145017.53;;;5.35;100.00
3590;BME280;1809;48.470;9.226;2023-02-02T08:11:34;145034.38;;;5.42;100.00
3590;BME280;1809;48.470;9.226;2023-02-02T08:14:00;144342.63;;;5.41;100.00
3590;BME280;1809;48.470;9.226;2023-02-02T08:16:27;144016.53;;;5.49;100.00
3590;BME280;1809;48.470;9.226;2023-02-02T08:18:53;143667.72;;;5.47;100.00
3590;BME280;1809;48.470;9.226;2023-02-02T08:21:19;143324.94;;;5.47;100.00
3590;BME280;1809;48.470;9.226;2023-02-02T08:23:45;144363.03;;;5.50;100.00
3590;BME280;1809;48.470;9.226;2023-02-02T08:28:45;144394.28;;;5.63;100.00
3590;BME280;1809;48.470;9.226;2023-02-02T08:31:14;143347.59;;;5.57;100.00
3590;BME280;1809;48.470;9.226;2023-02-02T08:33:40;143358.28;;;5.61;100.00
3590;BME280;1809;48.470;9.226;2023-02-02T08:36:13;142680.94;;;5.66;100.00
3590;BME280;1809;48.470;9.226;2023-02-02T08:38:39;142332.16;;;5.64;100.00
3590;BME280;1809;48.470;9.226;2023-02-02T08:41:06;141653.69;;;5.68;100.00
3590;BME280;1809;48.470;9.226;2023-02-02T08:43:32;141305.09;;;5.66;100.00
3590;BME280;1809;48.470;9.226;2023-02-02T08:45:58;141663.13;;;5.72;100.00
3590;BME280;1809;48.470;9.226;2023-02-02T08:48:23;139936.75;;;5.69;100.00
3590;BME280;1809;48.470;9.226;2023-02-02T08:50:56;139598.78;;;5.71;100.00
3590;BME280;1809;48.470;9.226;2023-02-02T08:53:22;138921.72;;;5.76;100.00
3590;BME280;1809;48.470;9.226;2023-02-02T08:55:56;137905.56;;;5.82;100.00
3590;BME280;1809;48.470;9.226;2023-02-02T08:58:22;136550.56;;;5.91;100.00
3590;BME280;1809;48.470;9.226;2023-02-02T09:00:47;134842.00;;;5.95;100.00
3590;BME280;1809;48.470;9.226;2023-02-02T09:03:12;132786.44;;;5.97;100.00
3590;BME280;1809;48.470;9.226;2023-02-02T09:05:38;131424.59;;;6.02;100.00
3590;BME280;1809;48.470;9.226;2023-02-02T09:08:03;129703.94;;;6.00;100.00
3590;BME280;1809;48.470;9.226;2023-02-02T09:10:29;128665.56;;;5.95;100.00
3590;BME280;1809;48.470;9.226;2023-02-02T09:12:56;127983.19;;;5.97;100.00
3590;BME280;1809;48.470;9.226;2023-02-02T09:15:21;129015.94;;;5.99;100.00
3590;BME280;1809;48.470;9.226;2023-02-02T09:17:47;129023.44;;;6.02;100.00
3590;BME280;1809;48.470;9.226;2023-02-02T09:20:12;130050.13;;;6.01;100.00
3590;BME280;1809;48.470;9.226;2023-02-02T09:22:38;129691.03;;;5.93;100.00
3590;BME280;1809;48.470;9.226;2023-02-02T09:25:04;130059.88;;;6.06;100.00
3590;BME280;1809;48.470;9.226;2023-02-02T09:27:29;130058.78;;;6.05;100.00
3590;BME280;1809;48.470;9.226;2023-02-02T09:29:54;129702.84;;;5.99;100.00
3590;BME280;1809;48.470;9.226;2023-02-02T09:32:20;131406.06;;;5.93;100.00
3590;BME280;1809;48.470;9.226;2023-02-02T09:34:46;134139.66;;;5.88;100.00
3590;BME280;1809;48.470;9.226;2023-02-02T09:37:11;136185.44;;;5.81;100.00
3590;BME280;1809;48.470;9.226;2023-02-02T09:39:37;137904.47;;;5.82;100.00
3590;BME280;1809;48.470;9.226;2023-02-02T09:44:46;141363.88;;;5.91;100.00
3590;BME280;1809;48.470;9.226;2023-02-02T09:52:31;148268.63;;;5.98;100.00
3590;BME280;1809;48.470;9.226;2023-02-02T09:55:02;148937.13;;;5.89;100.00
3590;BME280;1809;48.470;9.226;2023-02-02T09:57:35;151006.31;;;5.89;100.00
3590;BME280;1809;48.470;9.226;2023-02-02T10:00:02;152024.81;;;5.83;100.00
3590;BME280;1809;48.470;9.226;2023-02-02T10:02:35;153058.78;;;5.82;100.00
3590;BME280;1809;48.470;9.226;2023-02-02T10:05:20;155461.19;;;5.77;100.00
3590;BME280;1809;48.470;9.226;2023-02-02T10:07:51;156163.72;;;5.80;100.00
3590;BME280;1809;48.470;9.226;2023-02-02T10:10:28;156155.91;;;5.77;100.00
3590;BME280;1809;48.470;9.226;2023-02-02T10:13:46;156149.41;;;5.75;100.00
3590;BME280;1809;48.470;9.226;2023-02-02T10:15:56;156127.28;;;5.66;100.00
3590;BME280;1809;48.470;9.226;2023-02-02T10:18:34;156126.00;;;5.66;100.00
3590;BME280;1809;48.470;9.226;2023-02-02T10:21:26;156118.19;;;5.63;100.00
3590;BME280;1809;48.470;9.226;2023-02-02T10:23:54;156126.00;;;5.66;100.00
3590;BME280;1809;48.470;9.226;2023-02-02T10:31:43;156105.13;;;5.58;100.00
3590;BME280;1809;48.470;9.226;2023-02-02T10:34:35;156107.75;;;5.59;100.00
3590;BME280;1809;48.470;9.226;2023-02-02T10:42:34;156141.59;;;5.72;100.00
3590;BME280;1809;48.470;9.226;2023-02-02T10:45:16;156158.53;;;5.78;100.00
3590;BME280;1809;48.470;9.226;2023-02-02T10:47:42;156167.66;;;5.82;100.00
3590;BME280;1809;48.470;9.226;2023-02-02T10:52:38;156149.41;;;5.75;100.00
3590;BME280;1809;48.470;9.226;2023-02-02T10:57:43;156150.72;;;5.75;100.00
3590;BME280;1809;48.470;9.226;2023-02-02T11:02:43;156162.41;;;5.80;100.00
3590;BME280;1809;48.470;9.226;2023-02-02T11:05:16;156188.50;;;5.90;100.00
3590;BME280;1809;48.470;9.226;2023-02-02T11:08:10;156201.50;;;5.95;100.00
3590;BME280;1809;48.470;9.226;2023-02-02T11:10:36;156204.13;;;5.96;100.00
3590;BME280;1809;48.470;9.226;2023-02-02T11:13:02;156185.91;;;5.89;100.00
3590;BME280;1809;48.470;9.226;2023-02-02T11:15:29;156182.00;;;5.87;100.00
3590;BME280;1809;48.470;9.226;2023-02-02T11:17:55;156185.91;;;5.89;100.00
3590;BME280;1809;48.470;9.226;2023-02-02T11:20:23;156184.59;;;5.88;100.00
3590;BME280;1809;48.470;9.226;2023-02-02T11:22:59;156175.47;;;5.85;100.00
3590;BME280;1809;48.470;9.226;2023-02-02T11:25:32;156196.31;;;5.93;100.00
3590;BME280;1809;48.470;9.226;2023-02-02T11:28:11;156161.09;;;5.79;100.00
3590;BME280;1809;48.470;9.226;2023-02-02T11:30:45;156180.69;;;5.87;100.00
3590;BME280;1809;48.470;9.226;2023-02-02T11:33:37;156179.41;;;5.86;100.00
3590;BME280;1809;48.470;9.226;2023-02-02T11:36:06;156195.00;;;5.92;100.00
3590;BME280;1809;48.470;9.226;2023-02-02T11:38:41;156231.50;;;6.07;100.00
3590;BME280;1809;48.470;9.226;2023-02-02T11:41:07;156253.53;;;6.16;100.00
3590;BME280;1809;48.470;9.226;2023-02-02T11:43:39;155241.38;;;6.26;100.00
3590;BME280;1809;48.470;9.226;2023-02-02T11:46:20;153865.78;;;6.28;100.00
3590;BME280;1809;48.470;9.226;2023-02-02T11:49:14;153174.94;;;6.28;100.00
3590;BME280;1809;48.470;9.226;2023-02-02T11:51:41;151770.88;;;6.19;100.00
3590;BME280;1809;48.470;9.226;2023-02-02T11:54:15;151433.25;;;6.22;100.00
3590;BME280;1809;48.470;9.226;2023-02-02T11:56:47;152097.09;;;6.12;100.00
3590;BME280;1809;48.470;9.226;2023-02-02T12:04:45;155539.00;;;6.07;100.00
3590;BME280;1809;48.470;9.226;2023-02-02T12:07:34;156245.81;;;6.12;100.00
3590;BME280;1809;48.470;9.226;2023-02-02T12:10:13;156234.06;;;6.08;100.00
3590;BME280;1809;48.470;9.226;2023-02-02T12:13:04;156217.13;;;6.01;100.00
3590;BME280;1809;48.470;9.226;2023-02-02T12:15:59;156232.69;;;6.08;100.00
3590;BME280;1809;48.470;9.226;2023-02-02T12:21:24;156224.94;;;6.04;100.00
3590;BME280;1809;48.470;9.226;2023-02-02T12:24:21;156206.75;;;5.97;100.00
3590;BME280;1809;48.470;9.226;2023-02-02T12:27:09;156182.00;;;5.87;100.00
3590;BME280;1809;48.470;9.226;2023-02-02T12:33:22;156159.84;;;5.79;100.00
3590;BME280;1809;48.470;9.226;2023-02-02T13:10:38;156102.56;;;5.57;100.00
3590;BME280;1809;48.470;9.226;2023-02-02T13:13:10;156089.50;;;5.52;100.00
3590;BME280;1809;48.470;9.226;2023-02-02T13:15:43;156050.47;;;5.36;100.00
3590;BME280;1809;48.470;9.226;2023-02-02T13:18:25;156050.47;;;5.36;100.00
3590;BME280;1809;48.470;9.226;2023-02-02T13:20:55;156047.91;;;5.35;100.00
3590;BME280;1809;48.470;9.226;2023-02-02T13:23:27;156068.72;;;5.43;100.00
3590;BME280;1809;48.470;9.226;2023-02-02T13:26:03;156062.22;;;5.41;100.00
3590;BME280;1809;48.470;9.226;2023-02-02T13:28:39;156073.91;;;5.46;100.00
3590;BME280;1809;48.470;9.226;2023-02-02T13:31:13;156073.91;;;5.46;100.00
3590;BME280;1809;48.470;9.226;2023-02-02T13:33:43;156068.72;;;5.43;100.00
3590;BME280;1809;48.470;9.226;2023-02-02T13:36:17;156067.41;;;5.43;100.00
3590;BME280;1809;48.470;9.226;2023-02-02T13:38:53;156077.81;;;5.47;100.00
3590;BME280;1809;48.470;9.226;2023-02-02T13:41:20;156084.31;;;5.50;100.00
3590;BME280;1809;48.470;9.226;2023-02-02T13:46:35;156081.69;;;5.49;100.00
3590;BME280;1809;48.470;9.226;2023-02-02T14:00:37;156008.81;;;5.20;100.00
3590;BME280;1809;48.470;9.226;2023-02-02T14:03:36;156020.56;;;5.25;100.00
3590;BME280;1809;48.470;9.226;2023-02-02T14:06:17;156001.03;;;5.17;100.00
3590;BME280;1809;48.470;9.226;2023-02-02T14:08:46;155999.75;;;5.17;100.00
3590;BME280;1809;48.470;9.226;2023-02-02T14:11:20;156019.25;;;5.24;100.00
3590;BME280;1809;48.470;9.226;2023-02-02T14:13:52;156003.63;;;5.18;100.00
3590;BME280;1809;48.470;9.226;2023-02-02T14:19:04;156024.44;;;5.26;100.00
3590;BME280;1809;48.470;9.226;2023-02-02T14:24:00;156007.56;;;5.20;100.00
3590;BME280;1809;48.470;9.226;2023-02-02T14:26:58;156030.97;;;5.29;100.00
3590;BME280;1809;48.470;9.226;2023-02-02T14:32:01;156040.06;;;5.32;100.00
3590;BME280;1809;48.470;9.226;2023-02-02T14:34:37;156053.09;;;5.37;100.00
3590;BME280;1809;48.470;9.226;2023-02-02T14:37:40;156060.91;;;5.40;100.00
3590;BME280;1809;48.470;9.226;2023-02-02T14:45:27;156092.13;;;5.53;100.00
3590;BME280;1809;48.470;9.226;2023-02-02T14:50:52;156089.50;;;5.52;100.00
3590;BME280;1809;48.470;9.226;2023-02-02T14:56:10;156115.56;;;5.62;100.00
3590;BME280;1809;48.470;9.226;2023-02-02T15:01:26;155792.25;;;5.71;100.00
3590;BME280;1809;48.470;9.226;2023-02-02T15:04:22;154407.34;;;5.70;100.00
3590;BME280;1809;48.470;9.226;2023-02-02T15:06:49;153382.19;;;5.74;100.00
3590;BME280;1809;48.470;9.226;2023-02-02T15:25:45;149269.44;;;5.84;100.00
3590;BME280;1809;48.470;9.226;2023-02-02T15:30:41;148909.81;;;5.78;100.00
3590;BME280;1809;48.470;9.226;2023-02-02T15:33:20;149954.03;;;5.82;100.00
3590;BME280;1809;48.470;9.226;2023-02-02T15:35:47;150648.78;;;5.84;100.00
3590;BME280;1809;48.470;9.226;2023-02-02T15:38:15;150635.00;;;5.79;100.00
3590;BME280;1809;48.470;9.226;2023-02-02T15:40:44;150301.38;;;5.83;100.00
3590;BME280;1809;48.470;9.226;2023-02-02T15:43:11;150296.38;;;5.81;100.00
3590;BME280;1809;48.470;9.226;2023-02-02T15:45:53;150967.28;;;5.74;100.00
3590;BME280;1809;48.470;9.226;2023-02-02T15:48:20;150961.00;;;5.71;100.00
3590;BME280;1809;48.470;9.226;2023-02-02T15:50:48;151649.50;;;5.71;100.00
3590;BME280;1809;48.470;9.226;2023-02-02T15:53:21;151662.16;;;5.76;100.00